• Join FlightAware (Why Join?)
  • Login
  • US Flag 
02:17PM EDT


 

Airport Tracker/Info


-or-


 

Live Flight TrackerFlight Track Log ✈ CTL78 ✈ 24-May-2013 ✈ KYIP - KBKL

Flight Track Log - Related Links

Times and Time Zones

All times are in EDT time to prevent confusion due to time zone crossing. See the CTL78 flight status page for this flight to view local times or setup timezone preferences in your user account.

Time Position Orientation Groundspeed Altitude Reporting Facility
EDT Latitude Longitude Course Direction KTS MPH feet Rate Location/Type
09:36PM 42.0497 -83.0636 104° East 170 196 5,100  Level Cleveland Center
09:36PM 42.0461 -83.0439 104° East 177 204 5,100  Level Cleveland Center
09:37PM 42.0244 -82.9869 117° Southeast 177 204 5,100  Level Cleveland Center
09:38PM 42.0006 -82.9275 118° Southeast 177 204 5,100  Level Cleveland Center
09:39PM 41.9789 -82.8653 115° Southeast 178 205 5,100  Level Cleveland Center
09:40PM 41.9689 -82.8453 124° Southeast 175 201 5,100  Level Cleveland Center
09:41PM 41.9350 -82.7603 118° Southeast 181 208 5,100  Level Cleveland Center
09:42PM 41.9094 -82.6869 115° Southeast 178 205 5,100  Level Cleveland Center
09:43PM 41.8875 -82.6333 119° Southeast 181 208 5,100  Level Cleveland Center
09:44PM 41.8633 -82.5794 121° Southeast 181 208 5,100  Level Cleveland Center
09:45PM 41.8436 -82.5147 112° Southeast 182 209 5,100  Level Cleveland Center
09:46PM 41.8217 -82.4611 119° Southeast 179 206 5,100  Level Cleveland Center
09:47PM 41.7933 -82.3989 121° Southeast 183 211 5,100  Level Cleveland Center
09:48PM 41.7631 -82.3342 122° Southeast 185 213 5,100  Level Cleveland Center
09:49PM 41.7350 -82.2722 121° Southeast 188 216 5,100  Level Cleveland Center
09:50PM 41.7086 -82.2242 126° Southeast 187 215 5,100 -240 Level Cleveland Center
09:51PM 41.6822 -82.1622 120° Southeast 189 217 4,700 -600 Descending Cleveland Center
09:52PM 41.6519 -82.0894 119° Southeast 208 239 3,900 -720 Descending Cleveland Center
09:53PM 41.6258 -82.0219 117° Southeast 202 232 3,300 -480 Descending Cleveland Center
09:55PM 41.5953 -81.9492 119° Southeast 194 223 2,900 -360 Descending Cleveland Center
09:56PM 41.5711 -81.8847 117° Southeast 191 220 2,600 -300 Descending Cleveland Center
09:57PM 41.5444 -81.8317 124° Southeast 174 200 2,400 -360 Descending Cleveland Center
09:58PM 41.5244 -81.7703 113° Southeast 173 199 1,900 -540 Descending Cleveland Center
09:59PM 41.5039 -81.7256 122° Southeast 135 155 1,400 -540 Descending Cleveland Center
10:01PM 41.5175 -81.6833 108° East  Level Estimated